createdAt,value
2016-11-25T00:00:21.625Z,0
2016-11-25T00:01:02.363Z,0
2016-11-25T00:01:43.034Z,0
2016-11-25T00:02:23.746Z,0
2016-11-25T00:03:04.386Z,0
2016-11-25T00:03:45.022Z,0
2016-11-25T00:04:25.717Z,0
2016-11-25T00:05:06.465Z,0
2016-11-25T00:05:47.114Z,0
2016-11-25T00:06:27.831Z,0
2016-11-25T00:07:08.560Z,0
2016-11-25T00:07:49.260Z,0
2016-11-25T00:08:30.071Z,0
2016-11-25T00:09:10.826Z,0
2016-11-25T00:09:52.421Z,0
2016-11-25T00:10:33.091Z,0
2016-11-25T00:11:13.803Z,0
2016-11-25T00:11:54.480Z,0
2016-11-25T00:12:35.156Z,0
2016-11-25T00:13:15.869Z,0
2016-11-25T00:13:56.551Z,0
2016-11-25T00:14:37.195Z,0
2016-11-25T00:15:17.800Z,0
2016-11-25T00:15:58.519Z,0
2016-11-25T00:16:39.195Z,0
2016-11-25T00:17:19.831Z,0
2016-11-25T00:18:01.244Z,0
2016-11-25T00:18:41.263Z,0
2016-11-25T00:19:21.866Z,0
2016-11-25T00:20:02.739Z,0
2016-11-25T00:20:43.400Z,0
2016-11-25T00:21:23.992Z,0
2016-11-25T00:22:04.664Z,0
2016-11-25T00:22:45.325Z,0
2016-11-25T00:23:25.997Z,0
2016-11-25T00:24:06.735Z,0
2016-11-25T00:24:47.432Z,0
2016-11-25T00:25:28.140Z,0
2016-11-25T00:26:08.846Z,0
2016-11-25T00:26:49.552Z,0
2016-11-25T00:27:30.213Z,0
2016-11-25T00:28:10.809Z,0
2016-11-25T00:28:51.516Z,0
2016-11-25T00:29:32.213Z,0
2016-11-25T00:30:12.909Z,0
2016-11-25T00:30:53.743Z,0
2016-11-25T00:31:34.541Z,0
2016-11-25T00:32:15.245Z,0
2016-11-25T00:32:55.914Z,0
2016-11-25T00:33:36.618Z,0
2016-11-25T00:34:17.297Z,0
2016-11-25T00:34:58.005Z,0
2016-11-25T00:35:38.645Z,0
2016-11-25T00:36:19.396Z,0
2016-11-25T00:37:00.087Z,0
2016-11-25T00:37:40.805Z,0
2016-11-25T00:38:21.729Z,0
2016-11-25T00:39:02.456Z,0
2016-11-25T00:39:43.123Z,0
2016-11-25T00:40:23.885Z,0
2016-11-25T00:41:04.540Z,0
2016-11-25T00:41:45.257Z,0
2016-11-25T00:42:26.034Z,0
2016-11-25T00:43:06.751Z,0
2016-11-25T00:43:47.481Z,0
2016-11-25T00:44:28.251Z,0
2016-11-25T00:45:08.919Z,0
2016-11-25T00:45:49.887Z,0
2016-11-25T00:46:30.676Z,0
2016-11-25T00:47:11.390Z,0
2016-11-25T00:47:52.069Z,0
2016-11-25T00:48:32.738Z,0
2016-11-25T00:49:13.349Z,0
2016-11-25T00:49:54.114Z,0
2016-11-25T00:50:34.824Z,0
2016-11-25T00:51:15.613Z,0
2016-11-25T00:51:56.352Z,0
2016-11-25T00:52:37.090Z,0
2016-11-25T00:53:17.748Z,0
2016-11-25T00:53:58.436Z,0
2016-11-25T00:54:39.113Z,0
2016-11-25T00:55:19.762Z,0
2016-11-25T00:56:00.409Z,0
2016-11-25T00:56:41.047Z,0
2016-11-25T00:57:21.721Z,0
2016-11-25T00:58:02.271Z,0
2016-11-25T00:58:42.923Z,0
2016-11-25T00:59:23.593Z,0
2016-11-25T01:00:04.330Z,0
2016-11-25T01:00:45.023Z,0
2016-11-25T01:01:25.759Z,0
2016-11-25T01:02:06.518Z,0
2016-11-25T01:02:47.181Z,0
2016-11-25T01:03:27.861Z,0
2016-11-25T01:04:08.536Z,0
2016-11-25T01:04:49.219Z,0
2016-11-25T01:05:29.940Z,0
2016-11-25T01:06:10.583Z,0
2016-11-25T01:06:51.197Z,0
2016-11-25T01:07:31.832Z,0
2016-11-25T01:08:12.663Z,0
2016-11-25T01:08:53.312Z,0
2016-11-25T01:09:34.209Z,0
2016-11-25T01:10:14.953Z,0
2016-11-25T01:10:55.675Z,0
2016-11-25T01:11:36.292Z,0
2016-11-25T01:12:16.927Z,0
2016-11-25T01:12:57.564Z,0
2016-11-25T01:13:38.316Z,0
2016-11-25T01:14:18.999Z,0
2016-11-25T01:14:59.760Z,0
2016-11-25T01:15:40.538Z,0
2016-11-25T01:16:21.220Z,0
2016-11-25T01:17:01.900Z,0
2016-11-25T01:17:42.578Z,0
2016-11-25T01:18:23.198Z,0
2016-11-25T01:19:03.784Z,0
2016-11-25T01:19:44.388Z,0
2016-11-25T01:20:25.178Z,0
2016-11-25T01:21:05.988Z,0
2016-11-25T01:21:46.691Z,0
2016-11-25T01:22:27.408Z,0
2016-11-25T01:23:08.041Z,0
2016-11-25T01:23:48.779Z,0
2016-11-25T01:24:29.512Z,0
2016-11-25T01:25:10.107Z,0
2016-11-25T01:25:50.761Z,0
2016-11-25T01:26:31.397Z,0
2016-11-25T01:27:11.998Z,0
2016-11-25T01:27:52.748Z,0
2016-11-25T01:28:33.523Z,0
2016-11-25T01:29:14.241Z,0
2016-11-25T01:29:54.869Z,0
2016-11-25T01:30:35.573Z,0
2016-11-25T01:31:16.241Z,0
2016-11-25T01:31:56.871Z,0
2016-11-25T01:32:37.481Z,0
2016-11-25T01:33:18.142Z,0
2016-11-25T01:33:58.865Z,0
2016-11-25T01:34:39.511Z,0
2016-11-25T01:35:20.193Z,0
2016-11-25T01:36:00.893Z,0
2016-11-25T01:36:41.645Z,0
2016-11-25T01:37:22.402Z,0
2016-11-25T01:38:03.127Z,0
2016-11-25T01:38:43.871Z,0
2016-11-25T01:39:24.540Z,0
2016-11-25T01:40:05.165Z,0
2016-11-25T01:40:45.964Z,0
2016-11-25T01:41:26.614Z,0
2016-11-25T01:42:07.238Z,0
2016-11-25T01:42:48.006Z,0
2016-11-25T01:43:28.860Z,0
2016-11-25T01:44:09.531Z,0
2016-11-25T01:44:50.222Z,0
2016-11-25T01:45:30.937Z,0
2016-11-25T01:46:11.620Z,0
2016-11-25T01:46:52.268Z,0
2016-11-25T01:47:32.989Z,0
2016-11-25T01:48:13.636Z,0
2016-11-25T01:48:54.394Z,0
2016-11-25T01:49:35.050Z,0
2016-11-25T01:50:15.894Z,0
2016-11-25T01:50:56.686Z,0
2016-11-25T01:51:37.419Z,0
2016-11-25T01:52:18.062Z,0
2016-11-25T01:52:58.826Z,0
2016-11-25T01:53:39.589Z,0
2016-11-25T01:54:20.524Z,0
2016-11-25T01:55:01.210Z,0
2016-11-25T01:55:42.897Z,0
2016-11-25T01:56:23.718Z,0
2016-11-25T01:57:04.546Z,0
2016-11-25T01:57:45.341Z,0
2016-11-25T01:58:26.050Z,0
2016-11-25T01:59:06.760Z,0
2016-11-25T01:59:47.434Z,0
2016-11-25T02:00:28.105Z,0
2016-11-25T02:01:08.816Z,0
2016-11-25T02:01:49.544Z,0
2016-11-25T02:02:30.228Z,0
2016-11-25T02:03:10.782Z,0
2016-11-25T02:03:51.530Z,0
2016-11-25T02:04:33.093Z,0
2016-11-25T02:05:13.743Z,0
2016-11-25T02:05:54.474Z,0
2016-11-25T02:06:35.095Z,0
2016-11-25T02:07:15.812Z,0
2016-11-25T02:07:56.467Z,0
2016-11-25T02:08:37.297Z,0
2016-11-25T02:09:18.007Z,0
2016-11-25T02:09:58.657Z,0
2016-11-25T02:10:39.297Z,0
2016-11-25T02:11:20.079Z,0
2016-11-25T02:12:00.840Z,0
2016-11-25T02:12:41.619Z,0
2016-11-25T02:13:22.711Z,0
2016-11-25T02:14:02.881Z,0
2016-11-25T02:14:43.512Z,0
2016-11-25T02:15:24.307Z,0
2016-11-25T02:16:04.957Z,0
2016-11-25T02:16:45.702Z,0
2016-11-25T02:17:26.305Z,0
2016-11-25T02:18:07.125Z,0
2016-11-25T02:18:47.707Z,0
2016-11-25T02:19:28.478Z,0
2016-11-25T02:20:09.122Z,0
2016-11-25T02:20:49.821Z,0
2016-11-25T02:21:30.344Z,0
2016-11-25T02:22:10.996Z,0
2016-11-25T02:22:51.638Z,0
2016-11-25T02:23:32.272Z,0
2016-11-25T02:24:13.530Z,0
2016-11-25T02:24:54.246Z,0
2016-11-25T02:25:34.919Z,0
2016-11-25T02:26:15.608Z,0
2016-11-25T02:26:56.246Z,0
2016-11-25T02:27:36.880Z,0
2016-11-25T02:28:17.496Z,0
2016-11-25T02:28:58.255Z,0
2016-11-25T02:29:38.881Z,0
2016-11-25T02:30:19.459Z,0
2016-11-25T02:31:00.274Z,0
2016-11-25T02:33:13.683Z,0
2016-11-25T02:33:54.372Z,0
2016-11-25T02:34:35.405Z,0
2016-11-25T02:35:16.202Z,0
2016-11-25T02:35:56.787Z,0
2016-11-25T02:36:37.390Z,0
2016-11-25T02:37:17.978Z,0
2016-11-25T02:37:58.734Z,0
2016-11-25T02:38:39.375Z,0
2016-11-25T02:39:20.052Z,0
2016-11-25T02:40:00.696Z,0
2016-11-25T02:40:41.314Z,0
2016-11-25T02:41:22.045Z,0
2016-11-25T02:42:02.664Z,0
2016-11-25T02:42:43.320Z,0
2016-11-25T02:43:23.966Z,0
2016-11-25T02:44:04.816Z,0
2016-11-25T02:44:45.663Z,0
2016-11-25T02:45:26.556Z,0
2016-11-25T02:46:07.532Z,0
2016-11-25T02:46:48.906Z,0
2016-11-25T02:47:29.331Z,0
2016-11-25T02:48:10.274Z,0
2016-11-25T02:48:51.018Z,0
2016-11-25T02:49:31.692Z,0
2016-11-25T02:50:12.407Z,0
2016-11-25T02:50:53.080Z,0
2016-11-25T02:51:33.890Z,0
2016-11-25T02:52:14.641Z,0
2016-11-25T02:52:55.617Z,0
2016-11-25T02:53:36.308Z,0
2016-11-25T02:54:17.061Z,0
2016-11-25T02:54:57.927Z,0
2016-11-25T02:55:38.795Z,0
2016-11-25T02:56:19.473Z,0
2016-11-25T02:57:00.373Z,0
2016-11-25T02:57:41.183Z,0
2016-11-25T02:58:21.897Z,0
2016-11-25T02:59:02.655Z,0
2016-11-25T02:59:43.493Z,0
2016-11-25T03:00:24.219Z,0
2016-11-25T03:02:52.741Z,0
2016-11-25T03:03:33.437Z,0
2016-11-25T03:04:14.243Z,0
2016-11-25T03:04:55.003Z,0
2016-11-25T03:05:35.629Z,0
2016-11-25T03:06:16.362Z,0
2016-11-25T03:06:57.123Z,0
2016-11-25T03:07:37.872Z,0
2016-11-25T03:08:18.740Z,0
2016-11-25T03:08:59.649Z,0
2016-11-25T03:09:40.444Z,0
2016-11-25T03:10:21.462Z,0
2016-11-25T03:11:02.309Z,0
2016-11-25T03:11:43.187Z,0
2016-11-25T03:12:24.685Z,0
2016-11-25T03:13:05.499Z,0
2016-11-25T03:13:46.354Z,0
2016-11-25T03:14:27.232Z,0
2016-11-25T03:15:08.069Z,0
2016-11-25T03:15:48.872Z,0
2016-11-25T03:16:29.632Z,0
2016-11-25T03:17:10.305Z,0
2016-11-25T03:17:51.123Z,0
2016-11-25T03:18:32.270Z,0
2016-11-25T03:19:13.008Z,0
2016-11-25T03:19:53.980Z,0
2016-11-25T03:20:35.003Z,0
2016-11-25T03:22:53.629Z,0
2016-11-25T03:23:34.465Z,0
2016-11-25T03:24:15.098Z,0
2016-11-25T03:24:55.901Z,0
2016-11-25T03:25:36.751Z,0
2016-11-25T03:26:17.600Z,0
2016-11-25T03:26:58.657Z,0
2016-11-25T03:27:39.631Z,0
2016-11-25T03:28:20.663Z,0
2016-11-25T03:29:01.650Z,0
2016-11-25T03:29:42.494Z,0
2016-11-25T03:30:23.469Z,0
2016-11-25T03:31:04.420Z,0
2016-11-25T03:31:45.363Z,0
2016-11-25T03:32:26.480Z,0
2016-11-25T03:33:07.254Z,0
2016-11-25T03:33:48.221Z,0
2016-11-25T03:34:29.042Z,0
2016-11-25T03:35:09.941Z,0
2016-11-25T03:35:50.893Z,0
2016-11-25T03:36:31.646Z,0
2016-11-25T03:37:12.733Z,0
2016-11-25T03:37:53.975Z,0
2016-11-25T03:38:34.996Z,0
2016-11-25T03:39:16.182Z,0
2016-11-25T03:39:57.172Z,0
2016-11-25T03:40:38.083Z,0
2016-11-25T03:41:19.098Z,0
2016-11-25T03:42:00.142Z,0
2016-11-25T03:42:41.269Z,0
2016-11-25T03:43:22.074Z,0
2016-11-25T03:44:03.129Z,0
2016-11-25T03:44:43.834Z,0
2016-11-25T03:45:24.977Z,0
2016-11-25T03:46:05.795Z,0
2016-11-25T03:46:46.604Z,0
2016-11-25T03:47:27.873Z,0
2016-11-25T03:48:08.741Z,0
2016-11-25T03:48:49.798Z,0
2016-11-25T03:49:30.618Z,0
2016-11-25T03:50:11.409Z,0
2016-11-25T03:50:52.498Z,0
2016-11-25T03:51:33.340Z,0
2016-11-25T03:52:14.383Z,0
2016-11-25T03:52:55.715Z,0
2016-11-25T03:53:36.692Z,0
2016-11-25T03:54:17.792Z,0
2016-11-25T03:54:58.806Z,0
2016-11-25T03:55:40.026Z,0
2016-11-25T03:56:21.181Z,0
2016-11-25T03:57:02.276Z,0
2016-11-25T03:57:43.420Z,0
2016-11-25T03:58:24.495Z,0
2016-11-25T03:59:05.549Z,0
2016-11-25T03:59:46.446Z,0
2016-11-25T04:00:27.373Z,0
2016-11-25T04:01:08.139Z,0
2016-11-25T04:01:49.213Z,0
2016-11-25T04:02:30.492Z,0
2016-11-25T04:03:11.750Z,0
2016-11-25T04:03:52.887Z,0
2016-11-25T04:04:34.089Z,0
2016-11-25T04:05:15.116Z,0
2016-11-25T04:05:56.300Z,0
2016-11-25T04:06:37.316Z,0
2016-11-25T04:07:18.187Z,0
2016-11-25T04:07:59.223Z,0
2016-11-25T04:08:40.345Z,0
2016-11-25T04:09:21.520Z,0
2016-11-25T04:10:02.615Z,0
2016-11-25T04:10:43.742Z,0
2016-11-25T04:11:24.774Z,0
2016-11-25T04:12:05.680Z,0
2016-11-25T04:12:46.727Z,0
2016-11-25T04:13:27.869Z,0
2016-11-25T04:14:08.781Z,0
2016-11-25T04:14:50.158Z,0
2016-11-25T04:15:31.261Z,0
2016-11-25T04:16:12.293Z,0
2016-11-25T04:16:53.351Z,0
2016-11-25T04:17:34.494Z,0
2016-11-25T04:18:15.856Z,0
2016-11-25T04:18:56.752Z,0
2016-11-25T04:19:38.834Z,0
2016-11-25T04:20:19.962Z,0
2016-11-25T04:21:00.840Z,0
2016-11-25T04:21:41.987Z,0
2016-11-25T04:22:23.148Z,0
2016-11-25T04:23:04.182Z,0
2016-11-25T04:23:45.269Z,0
2016-11-25T04:24:26.575Z,0
2016-11-25T04:25:07.695Z,0
2016-11-25T04:25:48.629Z,0
2016-11-25T04:26:29.503Z,0
2016-11-25T04:27:10.450Z,0
2016-11-25T04:27:51.298Z,0
2016-11-25T04:28:32.717Z,0
2016-11-25T04:29:13.839Z,0
2016-11-25T04:29:55.066Z,0
2016-11-25T04:30:36.333Z,0
2016-11-25T04:31:17.650Z,0
2016-11-25T04:31:58.686Z,0
2016-11-25T04:32:40.031Z,0
2016-11-25T04:33:21.217Z,0
2016-11-25T04:34:02.009Z,0
2016-11-25T04:34:43.105Z,0
2016-11-25T04:35:24.226Z,0
2016-11-25T04:36:04.895Z,0
2016-11-25T04:36:46.017Z,0
2016-11-25T04:37:27.026Z,0
2016-11-25T04:38:07.791Z,0
2016-11-25T04:38:48.656Z,0
2016-11-25T04:39:29.415Z,0
2016-11-25T04:40:10.324Z,0
2016-11-25T04:40:51.369Z,0
2016-11-25T04:41:32.388Z,0
2016-11-25T04:42:13.122Z,0
2016-11-25T04:42:54.159Z,0
2016-11-25T04:43:35.362Z,0
2016-11-25T04:44:16.224Z,0
2016-11-25T04:44:57.136Z,0
2016-11-25T04:45:38.279Z,0
2016-11-25T04:46:19.240Z,0
2016-11-25T04:47:00.368Z,0
2016-11-25T04:47:41.431Z,0
2016-11-25T04:48:22.985Z,0
2016-11-25T04:49:04.227Z,0
2016-11-25T04:49:45.121Z,0
2016-11-25T04:50:26.208Z,0
2016-11-25T04:51:06.974Z,0
2016-11-25T04:53:04.886Z,0
2016-11-25T04:53:45.855Z,0
2016-11-25T04:54:26.852Z,0
2016-11-25T04:55:07.821Z,0
2016-11-25T04:55:48.753Z,0
2016-11-25T04:56:29.870Z,0
2016-11-25T04:57:10.749Z,0
2016-11-25T04:57:51.393Z,0
2016-11-25T04:58:32.533Z,0
2016-11-25T04:59:13.719Z,0
2016-11-25T04:59:54.977Z,0
2016-11-25T05:00:36.077Z,0
2016-11-25T05:01:17.076Z,0
2016-11-25T05:01:58.050Z,0
2016-11-25T05:02:38.929Z,0
2016-11-25T05:03:20.161Z,0
2016-11-25T05:04:00.974Z,0
2016-11-25T05:04:41.973Z,0
2016-11-25T05:05:22.987Z,0
2016-11-25T05:06:04.022Z,0
2016-11-25T05:06:45.250Z,0
2016-11-25T05:07:26.372Z,0
2016-11-25T05:08:07.552Z,0
2016-11-25T05:08:48.739Z,0
2016-11-25T05:09:29.690Z,0
2016-11-25T05:10:11.051Z,0
2016-11-25T05:10:52.322Z,0
2016-11-25T05:11:33.287Z,0
2016-11-25T05:12:14.083Z,0
2016-11-25T05:12:55.340Z,0
2016-11-25T05:13:35.957Z,0
2016-11-25T05:14:17.091Z,0
2016-11-25T05:14:58.297Z,0
2016-11-25T05:15:39.360Z,0
2016-11-25T05:16:20.561Z,0
2016-11-25T05:17:01.481Z,0
2016-11-25T05:17:42.390Z,0
2016-11-25T05:18:23.787Z,0
2016-11-25T05:19:04.799Z,0
2016-11-25T05:19:45.899Z,0
2016-11-25T05:20:26.734Z,0
2016-11-25T05:21:07.863Z,0
2016-11-25T05:21:48.733Z,0
2016-11-25T05:22:29.715Z,0
2016-11-25T05:23:10.586Z,0
2016-11-25T05:23:51.847Z,0
2016-11-25T05:24:32.645Z,0
2016-11-25T05:25:13.825Z,0
2016-11-25T05:25:54.514Z,0
2016-11-25T05:26:35.578Z,0
2016-11-25T05:27:16.637Z,0
2016-11-25T05:27:57.621Z,0
2016-11-25T05:28:38.646Z,0
2016-11-25T05:29:19.633Z,0
2016-11-25T05:30:00.495Z,0
2016-11-25T05:30:41.337Z,0
2016-11-25T05:31:22.375Z,0
2016-11-25T05:32:03.373Z,0
2016-11-25T05:32:44.127Z,0
2016-11-25T05:33:25.129Z,0
2016-11-25T05:34:06.002Z,0
2016-11-25T05:34:47.071Z,0
2016-11-25T05:35:27.944Z,0
2016-11-25T05:36:09.058Z,0
2016-11-25T05:36:49.998Z,0
2016-11-25T05:37:31.067Z,0
2016-11-25T05:38:11.979Z,0
2016-11-25T05:38:52.981Z,0
2016-11-25T05:39:33.973Z,0
2016-11-25T05:40:14.968Z,0
2016-11-25T05:40:55.856Z,0
2016-11-25T05:41:36.788Z,0
2016-11-25T05:42:17.713Z,0
2016-11-25T05:42:58.778Z,0
2016-11-25T05:43:39.741Z,0
2016-11-25T05:44:20.608Z,0
2016-11-25T05:45:01.642Z,0
2016-11-25T05:45:42.465Z,0
2016-11-25T05:46:23.515Z,0
2016-11-25T05:47:04.182Z,0
2016-11-25T05:47:45.065Z,0
2016-11-25T05:48:25.841Z,0
2016-11-25T05:49:06.779Z,0
2016-11-25T05:49:47.572Z,0
2016-11-25T05:50:28.523Z,0
2016-11-25T05:51:09.375Z,0
2016-11-25T05:51:50.253Z,0
2016-11-25T05:52:31.018Z,0
2016-11-25T05:53:11.901Z,0
2016-11-25T05:53:52.638Z,0
2016-11-25T05:54:33.448Z,0
2016-11-25T05:55:14.409Z,0
2016-11-25T05:55:55.346Z,0
2016-11-25T05:56:36.360Z,0
2016-11-25T05:57:17.174Z,0
2016-11-25T05:57:58.063Z,0
2016-11-25T05:58:38.983Z,0
2016-11-25T05:59:19.998Z,0
2016-11-25T06:00:00.795Z,0
2016-11-25T06:00:41.555Z,0
2016-11-25T06:01:22.479Z,0
2016-11-25T06:02:03.336Z,0
2016-11-25T06:02:44.069Z,0
2016-11-25T06:03:24.969Z,0
2016-11-25T06:04:05.818Z,0
2016-11-25T06:04:46.517Z,0
2016-11-25T06:05:27.513Z,0
2016-11-25T06:06:08.526Z,0
2016-11-25T06:06:49.374Z,0
2016-11-25T06:07:30.191Z,0
2016-11-25T06:08:11.126Z,0
2016-11-25T06:08:51.829Z,0
2016-11-25T06:09:32.519Z,0
2016-11-25T06:10:13.494Z,0
2016-11-25T06:10:54.468Z,0
2016-11-25T06:11:35.362Z,0
2016-11-25T06:12:16.478Z,0
2016-11-25T06:12:57.192Z,0
2016-11-25T06:13:38.244Z,0
2016-11-25T06:14:19.007Z,0
2016-11-25T06:14:59.780Z,0
2016-11-25T06:15:40.633Z,0
2016-11-25T06:16:21.499Z,0
2016-11-25T06:17:02.378Z,0
2016-11-25T06:17:43.246Z,0
2016-11-25T06:18:24.169Z,0
2016-11-25T06:19:05.114Z,0
2016-11-25T06:19:45.897Z,0
2016-11-25T06:20:26.895Z,0
2016-11-25T06:21:07.915Z,0
2016-11-25T06:21:48.690Z,0
2016-11-25T06:22:29.507Z,0
2016-11-25T06:23:10.526Z,0
2016-11-25T06:23:51.493Z,0
2016-11-25T06:24:32.417Z,0
2016-11-25T06:25:13.202Z,0
2016-11-25T06:25:54.183Z,0
2016-11-25T06:26:35.297Z,0
2016-11-25T06:27:16.103Z,0
2016-11-25T06:27:56.810Z,0
2016-11-25T06:28:37.647Z,0
2016-11-25T06:29:18.364Z,0
2016-11-25T06:29:59.136Z,0
2016-11-25T06:30:40.064Z,0
2016-11-25T06:31:21.056Z,0
2016-11-25T06:32:01.952Z,0
2016-11-25T06:32:42.729Z,0
2016-11-25T06:33:23.527Z,4
2016-11-25T06:34:04.392Z,4
2016-11-25T06:34:45.148Z,4
2016-11-25T06:35:26.096Z,0
2016-11-25T06:36:07.060Z,0
2016-11-25T06:36:47.805Z,4
2016-11-25T06:37:29.051Z,4
2016-11-25T06:38:09.765Z,4
2016-11-25T06:38:50.516Z,4
2016-11-25T06:39:31.245Z,4
2016-11-25T06:40:12.009Z,8
2016-11-25T06:40:52.737Z,4
2016-11-25T06:41:33.486Z,8
2016-11-25T06:42:14.339Z,8
2016-11-25T06:42:55.061Z,8
2016-11-25T06:43:35.726Z,12
2016-11-25T06:44:16.575Z,8
2016-11-25T06:44:57.258Z,8
2016-11-25T06:45:38.136Z,12
2016-11-25T06:46:18.918Z,16
2016-11-25T06:46:59.625Z,16
2016-11-25T06:47:40.704Z,16
2016-11-25T06:48:21.636Z,20
2016-11-25T06:49:02.515Z,24
2016-11-25T06:49:43.389Z,24
2016-11-25T06:50:24.238Z,28
2016-11-25T06:51:05.201Z,28
2016-11-25T06:51:46.103Z,36
2016-11-25T06:52:26.849Z,40
2016-11-25T06:53:08.110Z,44
2016-11-25T06:53:49.005Z,48
2016-11-25T06:54:29.726Z,48
2016-11-25T06:55:10.479Z,56
2016-11-25T06:55:51.320Z,60
2016-11-25T06:56:31.992Z,68
2016-11-25T06:57:12.683Z,72
2016-11-25T06:57:53.452Z,76
2016-11-25T06:58:34.137Z,84
2016-11-25T06:59:14.932Z,92
2016-11-25T06:59:55.787Z,96
2016-11-25T07:00:36.733Z,108
2016-11-25T07:01:17.639Z,116
2016-11-25T07:01:58.548Z,124
2016-11-25T07:02:39.478Z,132
2016-11-25T07:03:20.419Z,144
2016-11-25T07:04:01.326Z,152
2016-11-25T07:04:42.207Z,164
2016-11-25T07:05:23.083Z,172
2016-11-25T07:06:04.052Z,180
2016-11-25T07:06:44.722Z,196
2016-11-25T07:07:25.444Z,204
2016-11-25T07:08:06.438Z,216
2016-11-25T07:08:47.264Z,228
2016-11-25T07:09:28.117Z,236
2016-11-25T07:10:09.076Z,252
2016-11-25T07:10:50.044Z,264
2016-11-25T07:11:30.951Z,276
2016-11-25T07:12:11.757Z,292
2016-11-25T07:12:52.653Z,304
2016-11-25T07:13:33.663Z,316
2016-11-25T07:14:14.295Z,328
2016-11-25T07:14:55.992Z,344
2016-11-25T07:15:37.045Z,356
2016-11-25T07:16:17.958Z,376
2016-11-25T07:16:58.755Z,388
2016-11-25T07:17:39.720Z,404
2016-11-25T07:18:20.598Z,416
2016-11-25T07:19:01.433Z,436
2016-11-25T07:19:42.456Z,452
2016-11-25T07:20:23.377Z,464
2016-11-25T07:21:04.302Z,480
2016-11-25T07:21:44.939Z,500
2016-11-25T07:22:25.920Z,512
2016-11-25T07:23:07.009Z,532
2016-11-25T07:23:47.895Z,548
2016-11-25T07:24:28.682Z,564
2016-11-25T07:25:09.676Z,584
2016-11-25T07:25:50.814Z,600
2016-11-25T07:26:31.804Z,620
2016-11-25T07:27:12.782Z,640
2016-11-25T07:27:53.765Z,660
2016-11-25T07:28:34.652Z,680
2016-11-25T07:29:16.182Z,696
2016-11-25T07:29:57.058Z,720
2016-11-25T07:30:38.192Z,744
2016-11-25T07:31:18.880Z,764
2016-11-25T07:31:59.809Z,784
2016-11-25T07:32:40.775Z,804
2016-11-25T07:33:21.636Z,824
2016-11-25T07:34:02.430Z,848
2016-11-25T07:34:43.273Z,864
2016-11-25T07:35:24.125Z,888
2016-11-25T07:36:04.808Z,912
2016-11-25T07:36:45.617Z,932
2016-11-25T07:37:26.619Z,952
2016-11-25T07:39:25.294Z,1012
2016-11-25T07:40:06.515Z,1028
2016-11-25T07:40:47.389Z,1044
2016-11-25T07:41:29.259Z,1068
2016-11-25T07:42:10.469Z,1084
2016-11-25T07:42:51.515Z,1104
2016-11-25T07:43:32.433Z,1128
2016-11-25T07:44:13.294Z,1148
2016-11-25T07:44:54.113Z,1168
2016-11-25T07:45:34.822Z,1180
2016-11-25T07:46:15.821Z,1204
2016-11-25T07:46:56.784Z,1216
2016-11-25T07:47:37.611Z,1232
2016-11-25T07:48:18.572Z,1260
2016-11-25T07:48:59.374Z,1288
2016-11-25T07:49:40.251Z,1300
2016-11-25T07:50:21.346Z,1312
2016-11-25T07:51:02.247Z,1328
2016-11-25T07:51:43.044Z,1348
2016-11-25T07:52:23.949Z,1368
2016-11-25T07:53:04.726Z,1388
2016-11-25T07:53:45.488Z,1408
2016-11-25T07:54:26.327Z,1424
2016-11-25T07:55:08.279Z,1436
2016-11-25T07:55:48.421Z,1460
2016-11-25T07:56:29.035Z,1480
2016-11-25T07:57:09.841Z,1508
2016-11-25T07:57:50.653Z,1532
2016-11-25T07:58:31.469Z,1548
2016-11-25T07:59:12.428Z,1572
2016-11-25T07:59:53.613Z,1592
2016-11-25T08:00:34.532Z,1612
2016-11-25T08:01:15.411Z,1644
2016-11-25T08:01:56.322Z,1660
2016-11-25T08:02:37.027Z,1692
2016-11-25T08:03:17.943Z,1712
2016-11-25T08:03:59.058Z,1732
2016-11-25T08:04:39.665Z,1748
2016-11-25T08:05:20.578Z,1764
2016-11-25T08:06:01.305Z,1780
2016-11-25T08:06:42.039Z,1812
2016-11-25T08:07:22.734Z,1820
2016-11-25T08:08:03.584Z,1832
2016-11-25T08:08:44.271Z,1848
2016-11-25T08:09:25.144Z,1872
2016-11-25T08:10:05.907Z,1880
2016-11-25T08:10:46.651Z,1904
2016-11-25T08:11:27.446Z,1928
2016-11-25T08:12:08.111Z,1948
2016-11-25T08:12:49.122Z,1952
2016-11-25T08:13:29.934Z,1988
2016-11-25T08:14:10.829Z,1992
2016-11-25T08:14:52.381Z,2012
2016-11-25T08:15:33.125Z,2012
2016-11-25T08:16:13.950Z,2032
2016-11-25T08:16:54.988Z,2048
2016-11-25T08:17:35.845Z,2052
2016-11-25T08:18:16.784Z,2072
2016-11-25T08:18:57.777Z,2076
2016-11-25T08:19:38.437Z,2104
2016-11-25T08:20:19.291Z,2136
2016-11-25T08:21:00.134Z,2156
2016-11-25T08:21:40.744Z,2152
2016-11-25T08:22:21.583Z,2180
2016-11-25T08:26:27.049Z,2264
2016-11-25T08:27:07.691Z,2296
2016-11-25T08:27:48.379Z,2312
2016-11-25T08:28:29.194Z,2316
2016-11-25T08:29:09.961Z,2344
2016-11-25T08:29:50.858Z,2372
2016-11-25T08:30:31.576Z,2360
2016-11-25T08:31:12.482Z,2404
2016-11-25T08:31:53.418Z,2404
2016-11-25T08:32:34.215Z,2428
2016-11-25T08:33:14.984Z,2444
2016-11-25T08:33:55.964Z,2476
2016-11-25T08:34:36.747Z,2492
2016-11-25T08:35:17.802Z,2484
2016-11-25T08:35:58.654Z,2512
2016-11-25T08:36:39.774Z,2524
2016-11-25T08:37:20.592Z,2532
2016-11-25T08:38:01.424Z,2548
2016-11-25T08:38:42.290Z,2600
2016-11-25T08:39:23.145Z,2616
2016-11-25T08:40:04.033Z,2620
2016-11-25T08:40:45.577Z,2648
2016-11-25T08:41:26.337Z,2640
2016-11-25T08:42:07.413Z,2656
2016-11-25T08:42:48.160Z,2680
2016-11-25T08:43:29.119Z,2724
2016-11-25T08:44:10.089Z,2780
2016-11-25T08:44:50.807Z,2792
2016-11-25T08:45:31.620Z,2848
2016-11-25T08:46:12.550Z,2876
2016-11-25T08:46:53.242Z,2896
2016-11-25T08:47:33.989Z,2896
2016-11-25T08:48:14.807Z,2912
2016-11-25T08:48:55.723Z,2932
2016-11-25T08:49:36.592Z,2940
2016-11-25T08:50:17.300Z,2944
2016-11-25T08:50:58.147Z,2972
2016-11-25T08:51:38.884Z,2960
2016-11-25T08:52:19.821Z,3000
2016-11-25T08:53:00.734Z,3032
2016-11-25T08:53:41.966Z,3024
2016-11-25T08:54:22.817Z,3008
2016-11-25T08:55:03.633Z,2996
2016-11-25T08:55:44.436Z,3044
2016-11-25T08:56:25.304Z,3080
2016-11-25T08:57:06.344Z,3092
2016-11-25T08:57:47.256Z,3100
2016-11-25T08:58:28.196Z,3120
2016-11-25T08:59:09.031Z,3124
2016-11-25T08:59:49.759Z,3144
2016-11-25T09:00:30.683Z,3152
2016-11-25T09:01:11.740Z,3160
2016-11-25T09:01:53.382Z,3180
2016-11-25T09:02:33.936Z,3212
2016-11-25T09:03:14.638Z,3240
2016-11-25T09:03:55.484Z,3220
2016-11-25T09:04:36.309Z,3240
2016-11-25T09:05:17.165Z,3244
2016-11-25T09:05:57.904Z,3276
2016-11-25T09:06:38.918Z,3308
2016-11-25T09:07:19.734Z,3292
2016-11-25T09:08:00.723Z,3320
2016-11-25T09:08:41.761Z,3328
2016-11-25T09:09:22.594Z,3316
2016-11-25T09:10:03.463Z,3296
2016-11-25T09:10:44.238Z,3324
2016-11-25T09:11:25.572Z,3324
2016-11-25T09:12:06.337Z,3352
2016-11-25T09:12:47.242Z,3364
2016-11-25T09:13:28.057Z,3360
2016-11-25T09:14:08.918Z,3392
2016-11-25T09:14:49.707Z,3420
2016-11-25T09:15:30.821Z,3480
2016-11-25T09:16:11.680Z,3504
2016-11-25T09:16:52.466Z,3548
2016-11-25T09:17:33.388Z,3624
2016-11-25T09:18:14.344Z,3656
2016-11-25T09:18:55.213Z,3688
2016-11-25T09:19:36.141Z,3712
2016-11-25T09:20:16.952Z,3736
2016-11-25T09:20:57.994Z,3756
2016-11-25T09:21:38.995Z,3772
2016-11-25T09:22:20.183Z,3780
2016-11-25T09:23:01.083Z,3776
2016-11-25T09:23:41.770Z,3756
2016-11-25T09:24:22.592Z,3796
2016-11-25T09:25:03.565Z,3816
2016-11-25T09:25:44.611Z,3800
2016-11-25T09:26:25.569Z,3856
2016-11-25T09:27:06.766Z,3852
2016-11-25T09:27:47.715Z,3904
2016-11-25T09:28:28.512Z,3916
2016-11-25T09:29:09.419Z,3984
2016-11-25T09:29:50.479Z,4012
2016-11-25T09:30:31.560Z,4072
2016-11-25T09:31:12.548Z,4128
2016-11-25T09:31:54.408Z,4164
2016-11-25T09:32:34.520Z,4212
2016-11-25T09:33:15.581Z,4268
2016-11-25T09:33:56.391Z,4248
2016-11-25T09:34:37.477Z,4300
2016-11-25T09:35:18.589Z,4308
2016-11-25T09:35:59.517Z,4360
2016-11-25T09:36:40.413Z,4368
2016-11-25T09:37:21.387Z,4380
2016-11-25T09:38:02.236Z,4404
2016-11-25T09:38:43.248Z,4420
2016-11-25T09:39:24.097Z,4460
2016-11-25T09:40:04.989Z,4448
2016-11-25T09:40:45.975Z,4460
2016-11-25T09:41:27.103Z,4500
2016-11-25T09:42:07.936Z,4472
2016-11-25T09:42:48.815Z,4468
2016-11-25T09:43:29.740Z,4480
2016-11-25T09:44:10.636Z,4504
2016-11-25T09:44:51.555Z,4548
2016-11-25T09:45:32.498Z,4556
2016-11-25T09:46:13.352Z,4576
2016-11-25T09:46:54.607Z,4400
2016-11-25T09:47:35.617Z,4672
2016-11-25T09:48:16.333Z,4672
2016-11-25T09:48:57.069Z,4672
2016-11-25T09:49:37.920Z,4704
2016-11-25T09:50:18.870Z,4716
2016-11-25T09:50:59.696Z,4732
2016-11-25T09:51:40.672Z,4728
2016-11-25T09:52:21.586Z,4736
2016-11-25T09:53:02.375Z,4732
2016-11-25T09:53:43.326Z,4728
2016-11-25T09:54:24.055Z,4752
2016-11-25T09:55:05.104Z,4768
2016-11-25T09:55:45.972Z,4800
2016-11-25T09:56:26.861Z,4844
2016-11-25T09:57:07.628Z,4772